• Join FlightAware (Why Join?)
  • Login
  • US Flag 
01:44AM EDT


 

Airport Tracker/Info


-or-


 

Live Flight TrackerFlight Track Log ✈ UAL5887 ✈ 05-Sep-2013 ✈ KLAN - KORD

Flight Track Log - Related Links

Times and Time Zones

All times are in EDT time to prevent confusion due to time zone crossing. See the UAL5887 flight status page for this flight to view local times or setup timezone preferences in your user account.

Time Position Orientation Groundspeed Altitude Reporting Facility
EDT Latitude Longitude Course Direction KTS MPH feet Rate Location/Type
05:42AM 42.7786 -84.6239 281° West 119 137 2,400  Level Chicago Center
05:43AM 42.7797 -84.7011 271° West 200 230 4,600 2,640 Climbing Chicago Center
05:44AM 42.7814 -84.7944 271° West 237 273 7,800 2,760 Climbing Chicago Center
05:45AM 42.7667 -84.8856 270° West  Level FlightAware Approximate
05:45AM 42.7814 -84.8864 270° West 244 281 10,200  Level Chicago Center
05:46AM 42.7667 -84.9611 270° West  Level FlightAware Approximate
05:46AM 42.7817 -84.9936 270° West 274 315 11,600  Level Chicago Center
05:47AM 42.7718 -85.0360 281° West  Level FlightAware Approximate
05:47AM 42.7831 -85.1172 271° West 314 361 12,100  Level Chicago Center
05:48AM 42.7842 -85.2497 271° West 341 392 11,900 -120 Descending Chicago Center
05:49AM 42.7861 -85.3817 271° West 348 400 11,900  Level Chicago Center
05:50AM 42.7844 -85.5161 269° West 354 407 12,000  Climbing Chicago Center
05:51AM 42.7597 -85.6514 256° West 369 425 11,900 -60 Descending Chicago Center
05:52AM 42.7353 -85.7847 256° West 364 419 11,900  Level Chicago Center
05:53AM 42.7106 -85.9186 256° West 363 418 11,900  Level Chicago Center
05:54AM 42.6861 -86.0542 256° West 365 420 11,900  Level Chicago Center
05:55AM 42.6617 -86.1881 256° West 364 419 12,000  Climbing Chicago Center
05:56AM 42.6367 -86.3219 256° West 365 420 12,000  Level Chicago Center
05:57AM 42.6114 -86.4561 256° West 365 420 12,000 -60 Level Chicago Center
05:58AM 42.5869 -86.5914 256° West 369 425 11,900 -60 Descending Chicago Center
05:59AM 42.5611 -86.7244 255° West 366 421 11,900 -60 Level Chicago Center
06:00AM 42.5275 -86.8542 251° West 368 423 11,800 -780 Descending Chicago Center
06:01AM 42.4925 -86.9828 250° West 365 420 10,400 -900 Descending Chicago Center
06:02AM 42.4575 -87.1061 249° West 356 410 10,000 -240 Descending Chicago Center
06:03AM 42.4250 -87.2267 250° West 347 399 10,000 -60 Level Chicago Center
06:04AM 42.3931 -87.3486 251° West 344 396 9,900 -60 Descending Chicago Center
06:05AM 42.3572 -87.4692 248° West 341 392 9,900  Level Chicago Center
06:06AM 42.3031 -87.5744 235° Southwest 359 413 10,000  Climbing Chicago Center
06:07AM 42.2383 -87.7014 235° Southwest 345 397 9,900 -540 Descending Chicago Center
06:08AM 42.2022 -87.7975 243° Southwest 303 349 9,000 -1,380 Descending Chicago Center
06:09AM 42.1781 -87.8872 250° West 269 310 7,200 -1,440 Descending Chicago Center
06:10AM 42.1725 -87.9778 265° West 252 290 6,200 -1,020 Descending Chicago Center
06:11AM 42.1664 -88.0542 264° West 231 266 5,200 -1,080 Descending Chicago Center
06:12AM 42.1350 -88.0864 217° Southwest 213 245 4,100 -1,080 Descending Chicago Center
06:12AM 42.1000 -88.0667 157° South 198 228 3,600 -1,020 Descending Chicago TRACON
06:13AM 42.0667 -88.0167 132° Southeast 186 214 2,600 -900 Descending Chicago TRACON
06:14AM 42.0333 -87.9833 143° Southeast 132 152 1,800 -720 Descending Chicago TRACON
06:15AM 42.0167 -87.9500 124° Southeast 129 148 1,200 -600 Descending Chicago TRACON